createdAt,value
2019-02-24T00:01:02.349Z,20.10
2019-02-24T00:02:03.479Z,20.20
2019-02-24T00:03:04.484Z,20.80
2019-02-24T00:04:05.494Z,22.10
2019-02-24T00:05:06.637Z,21.50
2019-02-24T00:06:07.727Z,21.10
2019-02-24T00:07:08.740Z,21.20
2019-02-24T00:08:09.753Z,21.20
2019-02-24T00:09:11.773Z,21.90
2019-02-24T00:10:12.776Z,22.00
2019-02-24T00:11:13.797Z,21.90
2019-02-24T00:12:14.824Z,21.80
2019-02-24T00:13:15.837Z,22.10
2019-02-24T00:14:16.854Z,22.80
2019-02-24T00:15:17.868Z,22.80
2019-02-24T00:16:18.900Z,22.80
2019-02-24T00:17:20.056Z,22.50
2019-02-24T00:18:21.073Z,22.20
2019-02-24T00:19:22.092Z,22.80
2019-02-24T00:20:23.111Z,22.80
2019-02-24T00:21:24.120Z,22.80
2019-02-24T00:22:25.432Z,22.00
2019-02-24T00:23:26.465Z,21.70
2019-02-24T00:24:27.468Z,22.40
2019-02-24T00:25:28.485Z,22.80
2019-02-24T00:26:29.507Z,22.80
2019-02-24T00:27:30.640Z,22.00
2019-02-24T00:28:31.657Z,21.90
2019-02-24T00:29:32.671Z,21.70
2019-02-24T00:30:33.688Z,21.60
2019-02-24T00:31:34.704Z,21.70
2019-02-24T00:32:35.733Z,21.60
2019-02-24T00:33:36.746Z,21.70
2019-02-24T00:34:37.762Z,22.50
2019-02-24T00:35:38.772Z,22.80
2019-02-24T00:36:39.787Z,22.80
2019-02-24T00:37:40.822Z,23.30
2019-02-24T00:38:42.132Z,22.60
2019-02-24T00:39:43.136Z,22.00
2019-02-24T00:40:44.144Z,22.50
2019-02-24T00:41:45.164Z,21.70
2019-02-24T00:42:46.542Z,21.70
2019-02-24T00:43:47.632Z,22.00
2019-02-24T00:44:48.653Z,21.90
2019-02-24T00:45:49.665Z,21.80
2019-02-24T00:46:50.680Z,21.80
2019-02-24T00:47:51.704Z,22.10
2019-02-24T00:48:52.724Z,22.10
2019-02-24T00:49:53.745Z,22.20
2019-02-24T00:50:54.756Z,21.90
2019-02-24T00:51:55.790Z,21.80
2019-02-24T00:52:56.809Z,21.90
2019-02-24T00:53:57.831Z,21.80
2019-02-24T00:54:58.844Z,21.50
2019-02-24T00:55:59.877Z,21.30
2019-02-24T00:57:00.884Z,21.10
2019-02-24T00:58:01.910Z,21.00
2019-02-24T00:59:02.926Z,21.10
2019-02-24T01:00:07.451Z,21.00
2019-02-24T01:01:08.459Z,20.20
2019-02-24T01:02:09.479Z,20.30
2019-02-24T01:03:10.496Z,20.30
2019-02-24T01:04:11.512Z,20.40
2019-02-24T01:05:12.536Z,20.50
2019-02-24T01:06:13.542Z,20.30
2019-02-24T01:07:14.855Z,20.00
2019-02-24T01:08:16.087Z,19.90
2019-02-24T01:09:17.111Z,19.70
2019-02-24T01:10:18.117Z,19.70
2019-02-24T01:11:19.150Z,20.10
2019-02-24T01:12:20.153Z,19.50
2019-02-24T01:13:21.312Z,19.20
2019-02-24T01:14:22.328Z,19.20
2019-02-24T01:15:23.339Z,19.20
2019-02-24T01:16:24.360Z,19.10
2019-02-24T01:17:25.404Z,19.90
2019-02-24T01:18:26.440Z,21.20
2019-02-24T01:19:27.450Z,21.00
2019-02-24T01:20:28.460Z,20.90
2019-02-24T01:21:29.477Z,21.30
2019-02-24T01:22:30.489Z,20.60
2019-02-24T01:23:31.505Z,21.30
2019-02-24T01:24:32.516Z,21.80
2019-02-24T01:25:33.532Z,21.90
2019-02-24T01:26:34.556Z,21.90
2019-02-24T01:27:35.562Z,21.60
2019-02-24T01:28:36.605Z,21.80
2019-02-24T01:29:37.617Z,22.00
2019-02-24T01:30:38.644Z,22.00
2019-02-24T01:31:39.652Z,22.10
2019-02-24T01:32:40.664Z,22.50
2019-02-24T01:33:41.688Z,22.40
2019-02-24T01:34:42.709Z,23.10
2019-02-24T01:35:43.720Z,23.00
2019-02-24T01:36:44.736Z,23.30
2019-02-24T01:37:45.756Z,22.50
2019-02-24T01:38:46.792Z,23.10
2019-02-24T01:39:47.821Z,22.80
2019-02-24T01:40:48.828Z,22.60
2019-02-24T01:41:49.844Z,22.70
2019-02-24T01:42:50.880Z,22.80
2019-02-24T01:43:51.893Z,22.80
2019-02-24T01:44:52.911Z,23.00
2019-02-24T01:45:53.929Z,22.90
2019-02-24T01:46:54.939Z,22.90
2019-02-24T01:47:55.960Z,22.90
2019-02-24T01:48:56.980Z,22.90
2019-02-24T01:49:57.997Z,22.90
2019-02-24T01:50:59.012Z,22.90
2019-02-24T01:52:00.035Z,23.10
2019-02-24T01:53:01.054Z,22.90
2019-02-24T01:54:02.092Z,22.90
2019-02-24T01:55:03.203Z,23.00
2019-02-24T01:56:04.219Z,23.00
2019-02-24T01:57:05.236Z,23.10
2019-02-24T01:58:06.252Z,23.50
2019-02-24T01:59:07.276Z,23.70
2019-02-24T02:00:09.298Z,23.90
2019-02-24T02:01:10.312Z,23.60
2019-02-24T02:02:11.327Z,23.80
2019-02-24T02:03:12.353Z,23.30
2019-02-24T02:04:13.380Z,23.00
2019-02-24T02:05:14.393Z,23.00
2019-02-24T02:06:15.409Z,23.10
2019-02-24T02:07:17.116Z,23.10
2019-02-24T02:08:18.149Z,22.70
2019-02-24T02:09:19.184Z,22.60
2019-02-24T02:10:20.206Z,23.10
2019-02-24T02:11:21.244Z,23.30
2019-02-24T02:12:22.253Z,22.80
2019-02-24T02:13:23.336Z,22.80
2019-02-24T02:14:24.443Z,22.90
2019-02-24T02:15:25.463Z,23.10
2019-02-24T02:16:26.477Z,23.10
2019-02-24T02:17:27.500Z,23.40
2019-02-24T02:18:28.532Z,24.10
2019-02-24T02:19:29.545Z,23.30
2019-02-24T02:20:30.600Z,23.40
2019-02-24T02:21:31.608Z,23.10
2019-02-24T02:22:32.629Z,23.10
2019-02-24T02:23:33.640Z,23.50
2019-02-24T02:24:34.665Z,23.00
2019-02-24T02:25:35.678Z,23.20
2019-02-24T02:26:36.684Z,23.20
2019-02-24T02:27:37.708Z,23.20
2019-02-24T02:28:44.028Z,23.10
2019-02-24T02:29:41.653Z,23.10
2019-02-24T02:30:42.664Z,23.00
2019-02-24T02:31:43.684Z,22.90
2019-02-24T02:32:44.705Z,22.90
2019-02-24T02:33:45.719Z,23.60
2019-02-24T02:34:46.747Z,23.20
2019-02-24T02:35:47.749Z,22.80
2019-02-24T02:36:48.813Z,22.90
2019-02-24T02:37:49.824Z,23.50
2019-02-24T02:38:50.836Z,23.00
2019-02-24T02:39:51.866Z,23.30
2019-02-24T02:40:52.889Z,23.70
2019-02-24T02:41:53.888Z,23.50
2019-02-24T02:42:55.140Z,23.60
2019-02-24T02:43:56.149Z,23.80
2019-02-24T02:44:57.163Z,23.90
2019-02-24T02:45:58.181Z,24.20
2019-02-24T02:46:59.197Z,23.80
2019-02-24T02:48:00.204Z,23.30
2019-02-24T02:49:01.219Z,23.30
2019-02-24T02:50:02.745Z,23.10
2019-02-24T02:51:03.765Z,22.80
2019-02-24T02:52:04.781Z,22.90
2019-02-24T02:53:05.793Z,22.60
2019-02-24T02:54:06.821Z,22.70
2019-02-24T02:55:07.934Z,22.40
2019-02-24T02:56:08.952Z,22.20
2019-02-24T02:57:09.972Z,22.10
2019-02-24T02:58:10.993Z,22.40
2019-02-24T02:59:12.010Z,22.60
2019-02-24T03:00:32.478Z,22.20
2019-02-24T03:01:33.490Z,22.10
2019-02-24T03:02:34.505Z,22.10
2019-02-24T03:03:35.511Z,22.50
2019-02-24T03:04:36.522Z,22.40
2019-02-24T03:05:39.444Z,22.40
2019-02-24T03:06:48.334Z,22.20
2019-02-24T03:07:51.249Z,22.20
2019-02-24T03:08:53.456Z,22.50
2019-02-24T03:09:54.476Z,22.50
2019-02-24T03:10:55.492Z,22.40
2019-02-24T03:11:56.519Z,22.50
2019-02-24T03:12:57.544Z,22.70
2019-02-24T03:13:58.559Z,23.30
2019-02-24T03:14:59.589Z,22.80
2019-02-24T03:16:00.600Z,23.10
2019-02-24T03:17:01.705Z,23.10
2019-02-24T03:18:02.821Z,23.20
2019-02-24T03:19:03.828Z,23.40
2019-02-24T03:20:04.861Z,23.60
2019-02-24T03:21:05.876Z,23.40
2019-02-24T03:22:06.887Z,23.40
2019-02-24T03:23:07.903Z,23.60
2019-02-24T03:24:08.924Z,23.90
2019-02-24T03:25:09.941Z,23.90
2019-02-24T03:26:10.963Z,23.60
2019-02-24T03:27:12.026Z,24.00
2019-02-24T03:28:13.087Z,24.00
2019-02-24T03:29:14.091Z,24.20
2019-02-24T03:30:15.141Z,24.30
2019-02-24T03:31:16.152Z,24.00
2019-02-24T03:32:17.175Z,24.40
2019-02-24T03:33:18.209Z,23.80
2019-02-24T03:34:19.232Z,24.20
2019-02-24T03:35:20.266Z,23.90
2019-02-24T03:36:21.289Z,23.90
2019-02-24T03:37:22.320Z,24.00
2019-02-24T03:38:23.335Z,24.40
2019-02-24T03:39:24.341Z,23.90
2019-02-24T03:40:25.361Z,24.80
2019-02-24T03:41:26.374Z,24.60
2019-02-24T03:42:27.400Z,24.90
2019-02-24T03:43:28.425Z,24.80
2019-02-24T03:44:29.736Z,24.60
2019-02-24T03:45:30.783Z,24.70
2019-02-24T03:46:31.803Z,24.60
2019-02-24T03:47:32.824Z,24.70
2019-02-24T03:48:33.850Z,24.70
2019-02-24T03:49:34.860Z,24.40
2019-02-24T03:50:35.884Z,24.50
2019-02-24T03:51:36.897Z,24.60
2019-02-24T03:52:37.912Z,24.50
2019-02-24T03:53:39.028Z,24.70
2019-02-24T03:54:40.064Z,25.30
2019-02-24T03:55:41.285Z,25.30
2019-02-24T03:56:42.293Z,25.30
2019-02-24T03:57:43.308Z,25.30
2019-02-24T03:58:44.426Z,25.30
2019-02-24T03:59:45.444Z,25.30
2019-02-24T04:00:46.468Z,25.30
2019-02-24T04:01:47.484Z,25.60
2019-02-24T04:02:48.497Z,25.80
2019-02-24T04:03:49.604Z,26.20
2019-02-24T04:04:50.623Z,26.60
2019-02-24T04:05:51.748Z,26.80
2019-02-24T04:06:52.766Z,26.80
2019-02-24T04:07:53.768Z,27.10
2019-02-24T04:08:54.794Z,27.20
2019-02-24T04:09:55.805Z,27.40
2019-02-24T04:10:56.833Z,27.50
2019-02-24T04:11:57.856Z,27.60
2019-02-24T04:12:58.876Z,27.20
2019-02-24T04:13:59.891Z,26.90
2019-02-24T04:15:00.911Z,27.10
2019-02-24T04:16:01.957Z,27.20
2019-02-24T04:17:02.969Z,27.10
2019-02-24T04:18:03.983Z,27.10
2019-02-24T04:19:05.001Z,27.30
2019-02-24T04:20:06.207Z,27.20
2019-02-24T04:21:07.229Z,27.30
2019-02-24T04:22:08.244Z,27.30
2019-02-24T04:23:09.262Z,27.40
2019-02-24T04:24:10.276Z,27.70
2019-02-24T04:25:11.287Z,27.80
2019-02-24T04:26:12.312Z,27.70
2019-02-24T04:27:13.423Z,27.90
2019-02-24T04:28:14.444Z,28.20
2019-02-24T04:29:24.359Z,28.00
2019-02-24T04:30:18.409Z,28.00
2019-02-24T04:31:19.697Z,28.20
2019-02-24T04:32:20.725Z,28.10
2019-02-24T04:33:21.737Z,28.40
2019-02-24T04:34:22.755Z,28.50
2019-02-24T04:35:23.773Z,28.60
2019-02-24T04:36:24.792Z,28.70
2019-02-24T04:37:25.796Z,28.60
2019-02-24T04:38:26.832Z,28.60
2019-02-24T04:39:27.840Z,28.60
2019-02-24T04:40:28.871Z,28.60
2019-02-24T04:41:29.902Z,28.20
2019-02-24T04:42:30.922Z,28.60
2019-02-24T04:43:31.945Z,28.60
2019-02-24T04:44:32.970Z,28.60
2019-02-24T04:45:34.036Z,28.60
2019-02-24T04:46:35.348Z,28.60
2019-02-24T04:47:36.383Z,28.60
2019-02-24T04:48:37.400Z,28.60
2019-02-24T04:49:38.416Z,28.60
2019-02-24T04:50:39.450Z,28.60
2019-02-24T04:51:40.477Z,29.40
2019-02-24T04:52:41.522Z,28.60
2019-02-24T04:53:42.633Z,28.60
2019-02-24T04:54:43.662Z,28.60
2019-02-24T04:55:44.677Z,28.50
2019-02-24T04:56:45.720Z,28.50
2019-02-24T04:57:46.727Z,29.10
2019-02-24T04:58:47.732Z,28.20
2019-02-24T04:59:48.808Z,28.60
2019-02-24T05:00:49.808Z,28.50
2019-02-24T05:01:50.835Z,28.10
2019-02-24T05:02:51.843Z,27.90
2019-02-24T05:03:52.860Z,28.30
2019-02-24T05:04:53.878Z,28.00
2019-02-24T05:05:54.896Z,28.30
2019-02-24T05:06:55.913Z,28.40
2019-02-24T05:07:56.928Z,28.70
2019-02-24T05:08:57.942Z,29.30
2019-02-24T05:09:58.955Z,28.60
2019-02-24T05:10:59.964Z,28.50
2019-02-24T05:12:00.997Z,28.10
2019-02-24T05:13:02.019Z,28.40
2019-02-24T05:14:03.028Z,29.10
2019-02-24T05:15:04.653Z,29.30
2019-02-24T05:16:05.660Z,28.60
2019-02-24T05:17:06.684Z,28.90
2019-02-24T05:18:07.697Z,28.80
2019-02-24T05:19:08.716Z,28.50
2019-02-24T05:20:09.732Z,28.20
2019-02-24T05:21:10.744Z,28.00
2019-02-24T05:22:11.760Z,27.40
2019-02-24T05:23:13.080Z,27.40
2019-02-24T05:24:14.092Z,27.60
2019-02-24T05:25:15.129Z,27.70
2019-02-24T05:26:16.182Z,27.80
2019-02-24T05:27:17.205Z,27.80
2019-02-24T05:28:18.328Z,28.00
2019-02-24T05:29:20.462Z,27.50
2019-02-24T05:30:21.734Z,28.00
2019-02-24T05:31:22.737Z,27.70
2019-02-24T05:32:23.756Z,28.00
2019-02-24T05:33:24.772Z,28.10
2019-02-24T05:34:25.783Z,27.80
2019-02-24T05:35:26.797Z,27.10
2019-02-24T05:36:27.808Z,26.60
2019-02-24T05:37:28.827Z,26.50
2019-02-24T05:38:29.849Z,26.10
2019-02-24T05:39:30.872Z,26.10
2019-02-24T05:40:31.989Z,26.10
2019-02-24T05:41:33.005Z,26.30
2019-02-24T05:42:34.025Z,26.90
2019-02-24T05:43:35.034Z,26.90
2019-02-24T05:44:36.061Z,27.10
2019-02-24T05:45:37.083Z,26.50
2019-02-24T05:46:38.096Z,26.10
2019-02-24T05:47:39.191Z,27.00
2019-02-24T05:48:40.204Z,26.20
2019-02-24T05:49:41.223Z,26.80
2019-02-24T05:50:42.243Z,26.20
2019-02-24T05:51:43.240Z,25.80
2019-02-24T05:52:44.374Z,26.20
2019-02-24T05:53:45.384Z,27.30
2019-02-24T05:54:46.400Z,28.20
2019-02-24T05:55:47.416Z,27.90
2019-02-24T05:56:48.455Z,27.80
2019-02-24T05:57:49.484Z,28.00
2019-02-24T05:58:50.593Z,28.20
2019-02-24T05:59:55.351Z,28.50
2019-02-24T06:00:54.529Z,28.60
2019-02-24T06:01:55.548Z,28.50
2019-02-24T06:02:56.564Z,28.50
2019-02-24T06:03:57.582Z,28.60
2019-02-24T06:04:58.592Z,28.40
2019-02-24T06:05:59.613Z,28.20
2019-02-24T06:07:00.632Z,28.50
2019-02-24T06:08:01.649Z,28.50
2019-02-24T06:09:03.764Z,28.50
2019-02-24T06:10:05.182Z,28.50
2019-02-24T06:11:06.193Z,28.60
2019-02-24T06:12:07.219Z,29.00
2019-02-24T06:13:08.242Z,29.20
2019-02-24T06:14:09.252Z,29.60
2019-02-24T06:15:10.268Z,29.70
2019-02-24T06:16:11.280Z,29.50
2019-02-24T06:17:12.625Z,29.60
2019-02-24T06:18:13.636Z,30.00
2019-02-24T06:19:14.660Z,30.10
2019-02-24T06:20:15.681Z,30.50
2019-02-24T06:21:16.684Z,30.70
2019-02-24T06:22:17.733Z,30.50
2019-02-24T06:23:18.773Z,30.30
2019-02-24T06:24:19.819Z,30.20
2019-02-24T06:25:21.041Z,30.20
2019-02-24T06:26:22.249Z,30.30
2019-02-24T06:27:23.260Z,30.30
2019-02-24T06:28:24.288Z,30.40
2019-02-24T06:29:25.292Z,30.40
2019-02-24T06:30:26.303Z,30.50
2019-02-24T06:31:27.327Z,30.50
2019-02-24T06:32:28.354Z,30.80
2019-02-24T06:33:29.386Z,30.30
2019-02-24T06:34:30.399Z,30.40
2019-02-24T06:35:31.416Z,29.90
2019-02-24T06:36:32.437Z,29.90
2019-02-24T06:37:33.456Z,29.80
2019-02-24T06:38:34.480Z,29.40
2019-02-24T06:39:35.492Z,29.50
2019-02-24T06:40:36.500Z,29.40
2019-02-24T06:41:37.516Z,29.10
2019-02-24T06:42:38.636Z,29.10
2019-02-24T06:43:39.672Z,29.00
2019-02-24T06:44:40.684Z,28.70
2019-02-24T06:45:41.704Z,28.40
2019-02-24T06:46:42.750Z,29.30
2019-02-24T06:47:43.756Z,28.60
2019-02-24T06:48:44.789Z,29.20
2019-02-24T06:49:45.804Z,28.50
2019-02-24T06:50:51.273Z,28.10
2019-02-24T06:51:52.284Z,28.00
2019-02-24T06:52:53.305Z,28.10
2019-02-24T06:53:54.346Z,28.20
2019-02-24T06:54:55.370Z,27.90
2019-02-24T06:55:56.396Z,27.80
2019-02-24T06:56:57.418Z,27.90
2019-02-24T06:57:58.422Z,28.10
2019-02-24T06:58:59.456Z,28.40
2019-02-24T07:00:00.467Z,28.50
2019-02-24T07:01:01.488Z,28.50
2019-02-24T07:02:02.785Z,28.60
2019-02-24T07:03:03.791Z,29.00
2019-02-24T07:04:04.816Z,29.10
2019-02-24T07:05:06.743Z,29.30
2019-02-24T07:06:07.752Z,29.80
2019-02-24T07:07:08.768Z,29.90
2019-02-24T07:08:09.801Z,30.40
2019-02-24T07:09:10.826Z,30.80
2019-02-24T07:10:11.836Z,32.40
2019-02-24T07:11:12.884Z,32.50
2019-02-24T07:12:13.908Z,32.40
2019-02-24T07:13:14.920Z,32.40
2019-02-24T07:14:15.956Z,32.40
2019-02-24T07:15:16.992Z,31.40
2019-02-24T07:16:18.008Z,31.50
2019-02-24T07:17:19.047Z,32.10
2019-02-24T07:18:20.147Z,31.70
2019-02-24T07:19:21.169Z,31.70
2019-02-24T07:20:22.463Z,31.30
2019-02-24T07:21:23.476Z,31.00
2019-02-24T07:22:24.496Z,30.50
2019-02-24T07:23:25.555Z,30.10
2019-02-24T07:24:26.580Z,30.10
2019-02-24T07:25:27.612Z,29.80
2019-02-24T07:26:28.633Z,29.60
2019-02-24T07:27:29.980Z,29.70
2019-02-24T07:28:30.992Z,29.50
2019-02-24T07:29:32.019Z,30.40
2019-02-24T07:30:33.035Z,29.40
2019-02-24T07:31:34.052Z,29.10
2019-02-24T07:32:35.068Z,28.60
2019-02-24T07:33:36.170Z,28.60
2019-02-24T07:34:37.295Z,29.00
2019-02-24T07:35:38.308Z,28.80
2019-02-24T07:36:39.324Z,29.70
2019-02-24T07:37:40.336Z,29.90
2019-02-24T07:38:41.357Z,30.00
2019-02-24T07:39:42.384Z,30.10
2019-02-24T07:40:43.396Z,30.50
2019-02-24T07:41:44.418Z,30.40
2019-02-24T07:42:45.483Z,30.40
2019-02-24T07:43:46.576Z,30.20
2019-02-24T07:44:47.760Z,29.70
2019-02-24T07:45:48.768Z,29.80
2019-02-24T07:46:49.789Z,29.90
2019-02-24T07:47:50.832Z,30.00
2019-02-24T07:48:51.859Z,29.80
2019-02-24T07:49:52.886Z,28.60
2019-02-24T07:50:53.899Z,28.80
2019-02-24T07:51:54.917Z,28.10
2019-02-24T07:52:55.925Z,28.40
2019-02-24T07:53:56.951Z,28.70
2019-02-24T07:54:57.965Z,28.70
2019-02-24T07:55:58.983Z,28.80
2019-02-24T07:57:00.000Z,28.20
2019-02-24T07:58:01.018Z,28.50
2019-02-24T07:59:02.032Z,28.80
2019-02-24T08:00:06.665Z,28.80
2019-02-24T08:01:07.680Z,28.80
2019-02-24T08:02:08.701Z,28.90
2019-02-24T08:03:09.723Z,28.80
2019-02-24T08:04:10.745Z,28.90
2019-02-24T08:05:11.772Z,28.90
2019-02-24T08:06:12.811Z,28.90
2019-02-24T08:07:13.812Z,29.00
2019-02-24T08:08:16.703Z,29.00
2019-02-24T08:09:17.769Z,28.90
2019-02-24T08:10:18.798Z,29.10
2019-02-24T08:11:19.828Z,29.00
2019-02-24T08:12:20.857Z,29.00
2019-02-24T08:13:21.868Z,28.70
2019-02-24T08:14:22.936Z,28.70
2019-02-24T08:15:23.967Z,28.70
2019-02-24T08:16:24.982Z,28.60
2019-02-24T08:17:25.985Z,28.40
2019-02-24T08:18:27.000Z,28.50
2019-02-24T08:19:29.618Z,28.30
2019-02-24T08:20:30.964Z,28.30
2019-02-24T08:21:31.989Z,28.30
2019-02-24T08:22:33.005Z,28.30
2019-02-24T08:23:34.020Z,28.30
2019-02-24T08:24:35.041Z,28.20
2019-02-24T08:25:36.067Z,27.40
2019-02-24T08:26:37.083Z,27.10
2019-02-24T08:27:38.096Z,27.20
2019-02-24T08:28:39.119Z,27.50
2019-02-24T08:29:40.139Z,27.30
2019-02-24T08:30:42.018Z,27.00
2019-02-24T08:31:43.184Z,26.80
2019-02-24T08:32:44.345Z,26.50
2019-02-24T08:33:45.404Z,26.90
2019-02-24T08:34:46.396Z,27.60
2019-02-24T08:35:47.428Z,27.20
2019-02-24T08:36:48.449Z,27.00
2019-02-24T08:37:49.469Z,27.10
2019-02-24T08:38:50.483Z,26.70
2019-02-24T08:39:51.588Z,26.70
2019-02-24T08:40:52.630Z,27.60
2019-02-24T08:41:53.645Z,27.10
2019-02-24T08:42:54.656Z,27.40
2019-02-24T08:43:55.678Z,27.10
2019-02-24T08:44:56.698Z,26.90
2019-02-24T08:45:57.717Z,27.00
2019-02-24T08:46:58.728Z,26.90
2019-02-24T08:47:59.749Z,27.20
2019-02-24T08:49:00.760Z,27.20
2019-02-24T08:50:02.790Z,26.80
2019-02-24T08:51:03.825Z,26.10
2019-02-24T08:52:04.842Z,26.10
2019-02-24T08:53:05.890Z,26.20
2019-02-24T08:54:06.988Z,26.70
2019-02-24T08:55:08.004Z,26.80
2019-02-24T08:56:09.036Z,26.30
2019-02-24T08:57:10.079Z,26.50
2019-02-24T08:58:11.372Z,26.70
2019-02-24T08:59:12.437Z,26.60
2019-02-24T09:00:14.347Z,26.30
2019-02-24T09:01:15.375Z,26.40
2019-02-24T09:02:16.388Z,26.40
2019-02-24T09:03:17.426Z,26.90
2019-02-24T09:04:18.448Z,26.80
2019-02-24T09:05:19.469Z,26.50
2019-02-24T09:06:20.509Z,26.50
2019-02-24T09:07:21.512Z,26.50
2019-02-24T09:08:22.529Z,26.20
2019-02-24T09:09:23.548Z,26.40
2019-02-24T09:10:24.554Z,26.10
2019-02-24T09:11:25.594Z,25.50
2019-02-24T09:12:26.606Z,25.50
2019-02-24T09:13:27.625Z,25.60
2019-02-24T09:14:28.637Z,25.90
2019-02-24T09:15:29.646Z,25.90
2019-02-24T09:16:30.674Z,26.10
2019-02-24T09:17:31.693Z,25.90
2019-02-24T09:18:32.759Z,26.10
2019-02-24T09:19:33.892Z,26.20
2019-02-24T09:20:34.929Z,26.10
2019-02-24T09:21:35.966Z,26.10
2019-02-24T09:22:36.987Z,26.20
2019-02-24T09:23:37.999Z,26.80
2019-02-24T09:24:39.020Z,26.60
2019-02-24T09:25:40.137Z,25.90
2019-02-24T09:26:41.165Z,26.00
2019-02-24T09:27:42.188Z,25.90
2019-02-24T09:28:43.224Z,25.50
2019-02-24T09:29:44.239Z,26.00
2019-02-24T09:30:45.271Z,25.40
2019-02-24T09:31:46.316Z,25.50
2019-02-24T09:32:47.376Z,25.20
2019-02-24T09:33:48.392Z,25.20
2019-02-24T09:34:49.411Z,25.90
2019-02-24T09:35:51.777Z,25.50
2019-02-24T09:36:52.968Z,25.80
2019-02-24T09:37:53.983Z,26.10
2019-02-24T09:38:55.017Z,25.90
2019-02-24T09:39:56.124Z,26.10
2019-02-24T09:40:57.214Z,25.70
2019-02-24T09:41:58.244Z,25.70
2019-02-24T09:42:59.261Z,25.50
2019-02-24T09:44:00.273Z,25.60
2019-02-24T09:45:01.497Z,25.40
2019-02-24T09:46:02.638Z,25.70
2019-02-24T09:47:03.733Z,25.40
2019-02-24T09:48:04.757Z,25.40
2019-02-24T09:49:05.764Z,25.50
2019-02-24T09:50:07.874Z,25.10
2019-02-24T09:51:08.918Z,25.00
2019-02-24T09:52:09.925Z,24.90
2019-02-24T09:53:10.940Z,24.90
2019-02-24T09:54:12.041Z,24.80
2019-02-24T09:55:13.052Z,24.80
2019-02-24T09:56:14.072Z,25.00
2019-02-24T09:57:15.099Z,25.20
2019-02-24T09:58:16.136Z,25.00
2019-02-24T09:59:17.159Z,25.00
2019-02-24T10:00:18.210Z,25.30
2019-02-24T10:01:19.237Z,25.30
2019-02-24T10:02:20.232Z,24.50
2019-02-24T10:03:21.497Z,24.10
2019-02-24T10:04:22.543Z,24.80
2019-02-24T10:05:23.580Z,24.20
2019-02-24T10:06:24.624Z,23.90
2019-02-24T10:07:25.631Z,24.20
2019-02-24T10:08:26.650Z,23.70
2019-02-24T10:09:27.664Z,23.80
2019-02-24T10:10:28.672Z,23.40
2019-02-24T10:11:29.729Z,23.30
2019-02-24T10:12:30.752Z,23.80
2019-02-24T10:13:31.772Z,23.60
2019-02-24T10:14:32.785Z,22.90
2019-02-24T10:15:33.808Z,23.80
2019-02-24T10:16:34.840Z,23.20
2019-02-24T10:17:35.869Z,23.80
2019-02-24T10:18:37.537Z,23.30
2019-02-24T10:19:38.561Z,22.90
2019-02-24T10:20:39.588Z,22.80
2019-02-24T10:21:40.618Z,23.40
2019-02-24T10:22:41.744Z,22.80
2019-02-24T10:23:42.768Z,23.20
2019-02-24T10:24:43.889Z,22.80
2019-02-24T10:25:44.971Z,22.90
2019-02-24T10:26:46.005Z,22.90
2019-02-24T10:27:47.028Z,23.30
2019-02-24T10:28:48.044Z,22.90
2019-02-24T10:29:49.062Z,23.90
2019-02-24T10:30:50.088Z,23.90
2019-02-24T10:31:51.113Z,24.30
2019-02-24T10:32:52.150Z,23.60
2019-02-24T10:33:53.185Z,23.60
2019-02-24T10:34:54.200Z,23.70
2019-02-24T10:35:55.221Z,24.50
2019-02-24T10:36:56.244Z,23.80
2019-02-24T10:37:57.272Z,23.10
2019-02-24T10:38:58.308Z,23.00
2019-02-24T10:39:59.364Z,23.40
2019-02-24T10:41:00.421Z,23.00
2019-02-24T10:42:01.646Z,22.90
2019-02-24T10:43:02.674Z,23.10
2019-02-24T10:44:03.696Z,22.70
2019-02-24T10:45:08.513Z,22.50
2019-02-24T10:46:11.303Z,22.60
2019-02-24T10:47:12.463Z,22.40
2019-02-24T10:48:14.286Z,22.90
2019-02-24T10:49:15.528Z,22.90
2019-02-24T10:50:16.546Z,22.90
2019-02-24T10:51:17.568Z,23.10
2019-02-24T10:52:18.631Z,22.70
2019-02-24T10:53:19.721Z,22.10
2019-02-24T10:54:20.736Z,22.40
2019-02-24T10:55:21.745Z,22.60
2019-02-24T10:56:22.764Z,22.80
2019-02-24T10:57:23.780Z,22.10
2019-02-24T10:58:24.798Z,22.30
2019-02-24T10:59:25.804Z,22.20
2019-02-24T11:00:26.832Z,21.80
2019-02-24T11:01:29.882Z,21.50
2019-02-24T11:02:30.791Z,21.60
2019-02-24T11:03:31.808Z,21.50
2019-02-24T11:04:32.825Z,22.40
2019-02-24T11:05:33.857Z,21.90
2019-02-24T11:06:34.880Z,21.40
2019-02-24T11:07:35.996Z,21.20
2019-02-24T11:08:37.038Z,21.20
2019-02-24T11:09:38.046Z,21.20
2019-02-24T11:10:39.068Z,21.50
2019-02-24T11:11:40.115Z,21.50
2019-02-24T11:12:41.139Z,21.80
2019-02-24T11:13:42.144Z,20.90
2019-02-24T11:14:43.176Z,21.00
2019-02-24T11:15:44.195Z,21.00
2019-02-24T11:16:45.232Z,21.50
2019-02-24T11:17:46.241Z,21.00
2019-02-24T11:18:47.295Z,20.80
2019-02-24T11:19:48.396Z,21.40
2019-02-24T11:20:49.404Z,21.10
2019-02-24T11:21:50.535Z,21.20
2019-02-24T11:22:51.552Z,20.60
2019-02-24T11:23:52.573Z,20.30
2019-02-24T11:24:53.619Z,20.40
2019-02-24T11:25:54.646Z,20.30
2019-02-24T11:26:55.664Z,20.50
2019-02-24T11:27:56.695Z,20.00
2019-02-24T11:28:57.717Z,20.60
2019-02-24T11:29:58.744Z,20.80
2019-02-24T11:30:59.782Z,20.80
2019-02-24T11:32:01.093Z,21.00
2019-02-24T11:33:02.126Z,21.10
2019-02-24T11:34:03.142Z,20.50
2019-02-24T11:35:09.085Z,20.20
2019-02-24T11:36:10.148Z,20.70
2019-02-24T11:37:11.181Z,20.90
2019-02-24T11:38:12.195Z,19.90
2019-02-24T11:39:13.206Z,20.90
2019-02-24T11:40:16.146Z,20.20
2019-02-24T11:41:17.167Z,20.90
2019-02-24T11:42:18.207Z,20.50
2019-02-24T11:43:20.560Z,20.40
2019-02-24T11:44:21.631Z,20.00
2019-02-24T11:45:22.635Z,20.50
2019-02-24T11:46:23.652Z,20.70
2019-02-24T11:47:24.896Z,20.80
2019-02-24T11:48:25.916Z,19.90
2019-02-24T11:49:26.967Z,19.90
2019-02-24T11:50:28.064Z,18.70
2019-02-24T11:51:29.173Z,20.10
2019-02-24T11:52:30.202Z,19.80
2019-02-24T11:53:31.216Z,19.80
2019-02-24T11:54:32.239Z,20.30
2019-02-24T11:55:33.256Z,19.80
2019-02-24T11:56:34.276Z,19.60
2019-02-24T11:57:35.300Z,19.50
2019-02-24T11:58:36.329Z,18.00
2019-02-24T11:59:37.340Z,18.90
2019-02-24T12:00:38.364Z,19.70
2019-02-24T12:01:47.360Z,19.30
2019-02-24T12:02:42.316Z,19.00
2019-02-24T12:03:43.323Z,19.40
2019-02-24T12:04:44.341Z,18.80
2019-02-24T12:05:45.367Z,19.20
2019-02-24T12:06:46.558Z,19.30
2019-02-24T12:07:47.576Z,19.40
2019-02-24T12:08:48.597Z,19.60
2019-02-24T12:09:49.607Z,19.30
2019-02-24T12:10:50.628Z,19.70
2019-02-24T12:11:51.652Z,19.70
2019-02-24T12:12:52.700Z,20.10
2019-02-24T12:13:54.009Z,19.60
2019-02-24T12:14:55.016Z,19.80
2019-02-24T12:15:56.071Z,19.50
2019-02-24T12:16:57.096Z,19.50
2019-02-24T12:17:58.108Z,19.70
2019-02-24T12:18:59.133Z,19.60
2019-02-24T12:20:00.224Z,19.50
2019-02-24T12:21:01.466Z,19.40
2019-02-24T12:22:02.588Z,19.60
2019-02-24T12:23:03.691Z,19.10
2019-02-24T12:24:04.812Z,19.00
2019-02-24T12:25:09.600Z,18.90
2019-02-24T12:26:10.609Z,18.60
2019-02-24T12:27:11.642Z,19.00
2019-02-24T12:28:12.676Z,18.60
2019-02-24T12:29:13.676Z,18.60
2019-02-24T12:30:16.080Z,18.60
2019-02-24T12:31:17.139Z,17.70
2019-02-24T12:32:18.171Z,17.50
2019-02-24T12:33:19.172Z,18.30
2019-02-24T12:34:20.188Z,18.00
2019-02-24T12:35:21.192Z,18.40
2019-02-24T12:36:22.220Z,18.30
2019-02-24T12:37:23.241Z,17.60
2019-02-24T12:38:24.262Z,18.10
2019-02-24T12:39:25.273Z,17.40
2019-02-24T12:40:26.288Z,17.00
2019-02-24T12:41:27.296Z,16.70
2019-02-24T12:42:28.344Z,16.80
2019-02-24T12:43:29.466Z,16.50
2019-02-24T12:44:30.572Z,16.80
2019-02-24T12:45:31.575Z,17.40
2019-02-24T12:46:32.835Z,16.80
2019-02-24T12:47:33.863Z,17.70
2019-02-24T12:48:34.872Z,18.00
2019-02-24T12:49:35.903Z,18.10
2019-02-24T12:50:36.911Z,18.60
2019-02-24T12:51:37.968Z,18.30
2019-02-24T12:52:38.991Z,18.70
2019-02-24T12:53:40.036Z,18.90
2019-02-24T12:54:41.072Z,19.60
2019-02-24T12:55:42.088Z,19.00
2019-02-24T12:56:43.100Z,19.30
2019-02-24T12:57:44.320Z,19.00
2019-02-24T12:58:47.980Z,19.00
2019-02-24T12:59:48.996Z,19.00
2019-02-24T13:00:50.118Z,19.00
2019-02-24T13:01:51.128Z,19.00
2019-02-24T13:02:52.168Z,19.00
2019-02-24T13:03:53.181Z,19.00
2019-02-24T13:04:54.196Z,19.00
2019-02-24T13:05:55.221Z,19.00
2019-02-24T13:06:57.628Z,19.10
2019-02-24T13:07:59.025Z,19.10